createdAt,value
2018-01-24T00:00:39.109Z,13.27
2018-01-24T00:03:07.725Z,12.83
2018-01-24T00:05:35.519Z,13.20
2018-01-24T00:08:03.117Z,12.10
2018-01-24T00:10:30.705Z,12.93
2018-01-24T00:12:59.014Z,12.33
2018-01-24T00:15:26.797Z,12.73
2018-01-24T00:17:54.795Z,13.10
2018-01-24T00:20:22.609Z,13.33
2018-01-24T00:22:50.359Z,13.10
2018-01-24T00:25:18.829Z,13.87
2018-01-24T00:27:47.309Z,13.70
2018-01-24T00:30:15.085Z,14.40
2018-01-24T00:32:43.621Z,14.10
2018-01-24T00:35:11.367Z,14.27
2018-01-24T00:37:39.836Z,14.77
2018-01-24T00:40:07.637Z,14.97
2018-01-24T00:42:35.480Z,14.57
2018-01-24T00:45:03.368Z,15.00
2018-01-24T00:47:31.172Z,14.77
2018-01-24T00:49:58.916Z,15.93
2018-01-24T00:52:26.597Z,15.60
2018-01-24T00:54:54.967Z,13.33
2018-01-24T00:57:22.770Z,15.53
2018-01-24T00:59:50.387Z,14.73
2018-01-24T01:02:18.042Z,14.20
2018-01-24T01:04:45.925Z,15.33
2018-01-24T01:07:14.507Z,16.43
2018-01-24T01:09:42.285Z,15.23
2018-01-24T01:12:10.132Z,15.43
2018-01-24T01:14:37.901Z,14.87
2018-01-24T01:17:06.425Z,14.43
2018-01-24T01:19:34.109Z,14.13
2018-01-24T01:22:02.054Z,14.23
2018-01-24T01:24:29.631Z,14.67
2018-01-24T01:26:57.811Z,13.53
2018-01-24T01:29:25.659Z,14.77
2018-01-24T01:31:53.722Z,13.90
2018-01-24T01:34:22.160Z,15.03
2018-01-24T01:36:49.957Z,14.17
2018-01-24T01:39:17.551Z,14.23
2018-01-24T01:41:45.313Z,13.27
2018-01-24T01:44:13.031Z,13.70
2018-01-24T01:46:40.651Z,13.67
2018-01-24T01:49:08.365Z,14.63
2018-01-24T01:51:37.310Z,13.70
2018-01-24T01:54:04.865Z,14.93
2018-01-24T01:56:32.685Z,12.30
2018-01-24T01:59:01.661Z,12.70
2018-01-24T02:01:30.250Z,12.57
2018-01-24T02:03:57.873Z,11.70
2018-01-24T02:06:25.503Z,11.77
2018-01-24T02:08:53.069Z,11.13
2018-01-24T02:11:20.741Z,11.17
2018-01-24T02:13:48.440Z,10.20
2018-01-24T02:16:16.915Z,9.03
2018-01-24T02:18:44.525Z,9.13
2018-01-24T02:21:12.097Z,9.00
2018-01-24T02:23:39.697Z,8.90
2018-01-24T02:26:09.110Z,7.63
2018-01-24T02:28:36.853Z,7.70
2018-01-24T02:31:05.317Z,7.47
2018-01-24T02:33:33.099Z,7.43
2018-01-24T02:36:00.717Z,7.30
2018-01-24T02:38:40.018Z,7.27
2018-01-24T02:41:07.691Z,7.50
2018-01-24T02:43:35.379Z,7.50
2018-01-24T02:46:03.041Z,7.47
2018-01-24T02:48:30.734Z,8.03
2018-01-24T02:50:58.585Z,7.87
2018-01-24T02:53:26.390Z,8.97
2018-01-24T02:55:55.849Z,8.30
2018-01-24T02:58:23.731Z,8.93
2018-01-24T03:00:51.563Z,10.00
2018-01-24T03:03:19.345Z,11.57
2018-01-24T03:05:47.099Z,11.10
2018-01-24T03:08:14.723Z,12.00
2018-01-24T03:10:42.451Z,10.17
2018-01-24T03:13:10.241Z,11.27
2018-01-24T03:15:38.017Z,12.83
2018-01-24T03:18:06.499Z,13.93
2018-01-24T03:20:34.867Z,14.93
2018-01-24T03:23:02.441Z,15.27
2018-01-24T03:25:30.983Z,18.27
2018-01-24T03:27:58.779Z,16.57
2018-01-24T03:30:27.351Z,19.20
2018-01-24T03:32:55.174Z,20.67
2018-01-24T03:35:22.909Z,20.87
2018-01-24T03:37:50.629Z,23.43
2018-01-24T03:40:18.448Z,22.90
2018-01-24T03:42:46.230Z,24.80
2018-01-24T03:45:14.483Z,25.23
2018-01-24T03:47:42.367Z,25.33
2018-01-24T03:50:10.125Z,27.80
2018-01-24T03:52:37.757Z,27.37
2018-01-24T03:55:05.444Z,27.73
2018-01-24T03:57:33.243Z,28.47
2018-01-24T04:00:01.039Z,29.80
2018-01-24T04:02:28.781Z,29.67
2018-01-24T04:04:56.619Z,30.13
2018-01-24T04:07:25.506Z,30.13
2018-01-24T04:09:53.321Z,29.63
2018-01-24T04:12:21.129Z,30.10
2018-01-24T04:14:48.973Z,30.77
2018-01-24T04:17:16.717Z,33.17
2018-01-24T04:19:44.457Z,34.07
2018-01-24T04:22:12.265Z,32.97
2018-01-24T04:24:40.818Z,32.97
2018-01-24T04:27:08.599Z,34.13
2018-01-24T04:29:37.110Z,35.93
2018-01-24T04:32:04.717Z,36.93
2018-01-24T04:34:32.321Z,35.77
2018-01-24T04:37:00.097Z,36.73
2018-01-24T04:39:27.787Z,35.27
2018-01-24T04:41:55.718Z,35.90
2018-01-24T04:44:23.756Z,36.37
2018-01-24T04:46:51.297Z,37.67
2018-01-24T04:49:20.159Z,37.43
2018-01-24T04:51:47.990Z,37.10
2018-01-24T04:54:15.799Z,35.80
2018-01-24T04:56:43.591Z,37.77
2018-01-24T04:59:11.421Z,38.93
2018-01-24T05:01:39.135Z,40.37
2018-01-24T05:04:06.729Z,40.53
2018-01-24T05:06:35.185Z,41.03
2018-01-24T05:09:02.766Z,40.57
2018-01-24T05:11:31.161Z,47.20
2018-01-24T05:13:59.792Z,43.73
2018-01-24T05:16:27.631Z,39.67
2018-01-24T05:18:55.418Z,39.70
2018-01-24T05:21:33.865Z,36.77
2018-01-24T05:24:01.672Z,41.47
2018-01-24T05:26:29.421Z,34.40
2018-01-24T05:28:57.175Z,32.50
2018-01-24T05:31:24.795Z,31.37
2018-01-24T05:33:52.461Z,32.03
2018-01-24T05:36:20.076Z,33.43
2018-01-24T05:38:48.657Z,33.03
2018-01-24T05:41:17.621Z,30.97
2018-01-24T05:43:45.289Z,32.30
2018-01-24T05:46:13.051Z,30.10
2018-01-24T05:48:41.525Z,28.83
2018-01-24T05:51:09.185Z,27.27
2018-01-24T05:53:36.787Z,26.47
2018-01-24T05:56:04.321Z,27.17
2018-01-24T05:58:31.871Z,26.77
2018-01-24T06:00:59.384Z,26.87
2018-01-24T06:03:26.921Z,28.07
2018-01-24T06:05:54.447Z,26.33
2018-01-24T06:08:21.977Z,24.67
2018-01-24T06:10:49.487Z,23.23
2018-01-24T06:13:17.024Z,23.60
2018-01-24T06:15:44.535Z,21.60
2018-01-24T06:18:12.285Z,21.23
2018-01-24T06:20:39.821Z,21.70
2018-01-24T06:23:07.335Z,21.73
2018-01-24T06:25:34.847Z,23.47
2018-01-24T06:28:02.389Z,22.67
2018-01-24T06:30:29.895Z,23.07
2018-01-24T06:32:57.399Z,24.17
2018-01-24T06:35:24.911Z,24.33
2018-01-24T06:37:52.423Z,23.03
2018-01-24T06:40:19.923Z,21.87
2018-01-24T06:42:47.448Z,21.87
2018-01-24T06:45:14.949Z,23.07
2018-01-24T06:47:42.456Z,22.70
2018-01-24T06:50:09.975Z,24.23
2018-01-24T06:52:37.485Z,22.60
2018-01-24T06:55:05.010Z,21.10
2018-01-24T06:57:32.533Z,20.77
2018-01-24T07:00:00.045Z,21.30
2018-01-24T07:02:28.345Z,22.70
2018-01-24T07:04:55.867Z,23.93
2018-01-24T07:07:23.383Z,23.63
2018-01-24T07:09:50.887Z,24.10
2018-01-24T07:12:30.345Z,25.27
2018-01-24T07:14:57.865Z,25.77
2018-01-24T07:17:25.389Z,29.00
2018-01-24T07:19:52.926Z,27.70
2018-01-24T07:22:21.195Z,29.30
2018-01-24T07:24:48.702Z,27.47
2018-01-24T07:27:16.275Z,27.67
2018-01-24T07:29:43.804Z,29.40
2018-01-24T07:32:11.320Z,31.37
2018-01-24T07:34:38.873Z,33.43
2018-01-24T07:37:06.400Z,33.13
2018-01-24T07:39:33.909Z,34.37
2018-01-24T07:42:02.205Z,34.53
2018-01-24T07:44:29.733Z,35.67
2018-01-24T07:46:57.246Z,35.43
2018-01-24T07:49:24.781Z,35.43
2018-01-24T07:51:52.284Z,38.37
2018-01-24T07:54:19.796Z,40.10
2018-01-24T07:56:47.332Z,37.33
2018-01-24T07:59:15.615Z,41.47
2018-01-24T08:01:43.902Z,41.43
2018-01-24T08:04:11.430Z,42.10
2018-01-24T08:06:38.962Z,42.30
2018-01-24T08:09:06.507Z,45.73
2018-01-24T08:11:34.045Z,44.53
2018-01-24T08:14:01.581Z,43.20
2018-01-24T08:16:29.871Z,46.00
2018-01-24T08:18:58.184Z,49.57
2018-01-24T08:21:25.721Z,46.20
2018-01-24T08:23:53.253Z,45.67
2018-01-24T08:26:21.553Z,51.17
2018-01-24T08:28:49.079Z,49.33
2018-01-24T08:31:16.609Z,47.30
2018-01-24T08:33:44.116Z,48.97
2018-01-24T08:36:12.383Z,49.50
2018-01-24T08:38:40.661Z,51.63
2018-01-24T08:41:08.948Z,46.13
2018-01-24T08:43:37.249Z,44.57
2018-01-24T08:46:04.760Z,47.07
2018-01-24T08:48:32.310Z,45.83
2018-01-24T08:50:59.849Z,47.73
2018-01-24T08:53:27.383Z,46.37
2018-01-24T08:55:54.921Z,48.53
2018-01-24T08:58:23.190Z,48.03
2018-01-24T09:00:51.484Z,48.63
2018-01-24T09:03:19.001Z,49.17
2018-01-24T09:05:46.541Z,50.83
2018-01-24T09:08:14.047Z,49.17
2018-01-24T09:10:42.363Z,61.60
2018-01-24T09:13:09.901Z,53.10
2018-01-24T09:15:37.428Z,49.10
2018-01-24T09:18:04.974Z,48.50
2018-01-24T09:20:32.502Z,51.03
2018-01-24T09:23:00.058Z,47.17
2018-01-24T09:25:27.616Z,45.43
2018-01-24T09:27:55.150Z,41.90
2018-01-24T09:30:22.685Z,43.40
2018-01-24T09:32:50.233Z,50.87
2018-01-24T09:35:17.771Z,42.77
2018-01-24T09:37:45.293Z,42.97
2018-01-24T09:40:12.836Z,52.90
2018-01-24T09:42:41.123Z,42.07
2018-01-24T09:45:08.629Z,41.47
2018-01-24T09:47:36.158Z,41.60
2018-01-24T09:50:03.654Z,40.43
2018-01-24T09:52:31.167Z,38.53
2018-01-24T09:54:58.688Z,37.90
2018-01-24T09:57:26.185Z,38.00
2018-01-24T09:59:53.682Z,36.13
2018-01-24T10:02:21.210Z,36.00
2018-01-24T10:04:48.710Z,34.23
2018-01-24T10:07:16.208Z,35.13
2018-01-24T10:09:43.729Z,30.97
2018-01-24T10:12:11.243Z,30.97
2018-01-24T10:14:38.754Z,31.20
2018-01-24T10:17:06.282Z,31.70
2018-01-24T10:19:34.571Z,31.53
2018-01-24T10:22:02.093Z,29.73
2018-01-24T10:24:29.622Z,30.07
2018-01-24T10:26:57.135Z,30.10
2018-01-24T10:29:25.401Z,30.60
2018-01-24T10:31:52.907Z,29.37
2018-01-24T10:34:21.162Z,28.27
2018-01-24T10:36:48.665Z,26.23
2018-01-24T10:39:16.804Z,26.43
2018-01-24T10:41:44.322Z,26.10
2018-01-24T10:44:11.834Z,26.93
2018-01-24T10:46:40.121Z,26.67
2018-01-24T10:49:08.389Z,29.23
2018-01-24T10:51:36.654Z,29.57
2018-01-24T10:54:04.166Z,29.60
2018-01-24T10:56:31.662Z,29.37
2018-01-24T10:58:59.174Z,30.37
2018-01-24T11:01:26.684Z,30.67
2018-01-24T11:03:54.190Z,33.37
2018-01-24T11:06:21.697Z,35.07
2018-01-24T11:08:49.212Z,36.57
2018-01-24T11:11:16.717Z,36.10
2018-01-24T11:13:44.226Z,35.90
2018-01-24T11:16:11.754Z,37.20
2018-01-24T11:18:39.259Z,39.57
2018-01-24T11:21:06.765Z,38.17
2018-01-24T11:23:35.049Z,37.87
2018-01-24T11:26:03.336Z,39.47
2018-01-24T11:28:30.839Z,40.57
2018-01-24T11:30:58.372Z,39.80
2018-01-24T11:33:25.866Z,39.77
2018-01-24T11:35:53.364Z,38.53
2018-01-24T11:38:20.876Z,39.53
2018-01-24T11:40:48.373Z,36.77
2018-01-24T11:43:15.887Z,36.47
2018-01-24T11:45:43.429Z,32.13
2018-01-24T11:48:10.924Z,28.60
2018-01-24T11:50:38.418Z,26.80
2018-01-24T11:53:05.934Z,27.10
2018-01-24T11:55:33.437Z,27.90
2018-01-24T11:58:00.954Z,27.00
2018-01-24T12:00:28.456Z,29.83
2018-01-24T12:02:55.957Z,31.27
2018-01-24T12:05:23.475Z,32.50
2018-01-24T12:07:51.108Z,33.77
2018-01-24T12:10:19.388Z,30.53
2018-01-24T12:12:47.654Z,31.30
2018-01-24T12:15:15.169Z,33.97
2018-01-24T12:17:42.680Z,32.10
2018-01-24T12:20:10.962Z,33.67
2018-01-24T12:22:38.491Z,31.70
2018-01-24T12:25:06.009Z,33.13
2018-01-24T12:27:33.512Z,33.50
2018-01-24T12:30:01.034Z,32.13
2018-01-24T12:32:28.548Z,33.17
2018-01-24T12:34:56.833Z,32.57
2018-01-24T12:37:25.134Z,33.10
2018-01-24T12:39:52.644Z,33.87
2018-01-24T12:42:20.156Z,33.80
2018-01-24T12:44:47.673Z,34.00
2018-01-24T12:47:15.220Z,32.57
2018-01-24T12:49:42.734Z,33.40
2018-01-24T12:52:10.250Z,32.60
2018-01-24T12:54:38.634Z,34.57
2018-01-24T12:57:06.204Z,31.83
2018-01-24T12:59:34.585Z,32.03
2018-01-24T13:02:02.326Z,33.07
2018-01-24T13:04:29.856Z,30.87
2018-01-24T13:06:57.424Z,34.37
2018-01-24T13:09:25.007Z,34.80
2018-01-24T13:11:52.552Z,31.53
2018-01-24T13:14:20.098Z,31.37
2018-01-24T13:16:47.796Z,29.70
2018-01-24T13:19:16.866Z,29.73
2018-01-24T13:21:44.418Z,30.87
2018-01-24T13:24:11.942Z,30.20
2018-01-24T13:26:39.511Z,31.37
2018-01-24T13:29:07.115Z,30.13
2018-01-24T13:31:34.654Z,28.50
2018-01-24T13:34:02.394Z,28.97
2018-01-24T13:36:30.284Z,28.33
2018-01-24T13:38:57.848Z,28.03
2018-01-24T13:41:27.284Z,29.03
2018-01-24T13:43:54.864Z,28.70
2018-01-24T13:46:22.384Z,29.10
2018-01-24T13:48:49.918Z,28.97
2018-01-24T13:51:17.525Z,28.17
2018-01-24T13:53:45.124Z,30.03
2018-01-24T13:56:12.648Z,30.07
2018-01-24T13:58:40.204Z,28.00
2018-01-24T14:01:08.516Z,28.53
2018-01-24T14:03:36.070Z,29.97
2018-01-24T14:06:04.754Z,27.67
2018-01-24T14:08:32.316Z,29.50
2018-01-24T14:10:59.870Z,28.33
2018-01-24T14:13:27.424Z,27.47
2018-01-24T14:15:54.951Z,28.77
2018-01-24T14:18:22.487Z,29.50
2018-01-24T14:20:50.025Z,29.13
2018-01-24T14:23:17.594Z,28.80
2018-01-24T14:25:45.176Z,27.83
2018-01-24T14:28:12.710Z,29.37
2018-01-24T14:30:40.300Z,28.63
2018-01-24T14:33:08.993Z,27.47
2018-01-24T14:35:36.521Z,28.67
2018-01-24T14:38:04.382Z,26.70
2018-01-24T14:40:33.060Z,25.07
2018-01-24T14:43:01.728Z,24.57
2018-01-24T14:45:29.282Z,25.07
2018-01-24T14:47:56.822Z,25.53
2018-01-24T14:50:24.388Z,24.03
2018-01-24T14:52:51.930Z,24.27
2018-01-24T14:55:19.493Z,24.17
2018-01-24T14:57:47.803Z,26.00
2018-01-24T15:00:16.468Z,24.93
2018-01-24T15:02:44.008Z,24.50
2018-01-24T15:05:11.627Z,25.20
2018-01-24T15:07:39.908Z,26.00
2018-01-24T15:10:07.478Z,25.03
2018-01-24T15:12:35.048Z,24.77
2018-01-24T15:15:02.596Z,26.10
2018-01-24T15:17:30.916Z,25.10
2018-01-24T15:19:58.481Z,26.27
2018-01-24T15:22:26.050Z,25.27
2018-01-24T15:24:53.588Z,25.47
2018-01-24T15:27:21.194Z,25.67
2018-01-24T15:29:48.731Z,27.57
2018-01-24T15:32:16.338Z,27.13
2018-01-24T15:34:43.898Z,27.40
2018-01-24T15:37:11.430Z,29.87
2018-01-24T15:39:38.988Z,29.10
2018-01-24T15:42:06.562Z,29.20
2018-01-24T15:44:34.082Z,28.13
2018-01-24T15:47:01.621Z,28.57
2018-01-24T15:49:29.212Z,27.43
2018-01-24T15:51:56.809Z,29.13
2018-01-24T15:54:24.328Z,27.83
2018-01-24T15:56:51.892Z,28.50
2018-01-24T15:59:19.448Z,27.97
2018-01-24T16:01:47.022Z,28.47
2018-01-24T16:04:15.293Z,27.10
2018-01-24T16:06:42.845Z,27.00
2018-01-24T16:09:11.597Z,28.93
2018-01-24T16:11:39.160Z,29.57
2018-01-24T16:14:06.710Z,29.10
2018-01-24T16:16:34.229Z,29.20
2018-01-24T16:19:01.783Z,27.97
2018-01-24T16:21:30.520Z,28.87
2018-01-24T16:23:58.840Z,26.80
2018-01-24T16:26:26.384Z,28.13
2018-01-24T16:28:53.923Z,26.73
2018-01-24T16:31:22.602Z,26.97
2018-01-24T16:33:50.184Z,29.73
2018-01-24T16:36:18.534Z,28.90
2018-01-24T16:38:46.074Z,28.30
2018-01-24T16:41:13.596Z,27.63
2018-01-24T16:43:41.223Z,28.23
2018-01-24T16:46:08.760Z,28.57
2018-01-24T16:48:36.308Z,27.10
2018-01-24T16:51:03.828Z,27.23
2018-01-24T16:53:31.424Z,26.83
2018-01-24T16:56:00.186Z,26.00
2018-01-24T16:58:27.782Z,27.37
2018-01-24T17:00:55.301Z,25.23
2018-01-24T17:03:22.912Z,26.23
2018-01-24T17:05:50.455Z,26.47
2018-01-24T17:08:18.015Z,27.63
2018-01-24T17:10:45.560Z,27.27
2018-01-24T17:13:13.086Z,26.50
2018-01-24T17:15:41.377Z,28.90
2018-01-24T17:18:09.657Z,28.63
2018-01-24T17:20:37.168Z,29.80
2018-01-24T17:23:04.683Z,28.50
2018-01-24T17:25:32.206Z,30.57
2018-01-24T17:27:59.733Z,30.07
2018-01-24T17:30:27.250Z,30.37
2018-01-24T17:32:54.768Z,30.63
2018-01-24T17:35:22.284Z,30.90
2018-01-24T17:37:49.788Z,30.77
2018-01-24T17:40:18.072Z,30.00
2018-01-24T17:42:45.584Z,31.47
2018-01-24T17:45:13.151Z,33.50
2018-01-24T17:47:40.668Z,31.50
2018-01-24T17:50:08.246Z,31.00
2018-01-24T17:52:35.761Z,32.07
2018-01-24T17:55:04.044Z,34.80
2018-01-24T17:57:31.561Z,32.73
2018-01-24T17:59:59.072Z,34.43
2018-01-24T18:02:27.386Z,31.50
2018-01-24T18:04:54.914Z,33.37
2018-01-24T18:07:22.437Z,33.80
2018-01-24T18:09:49.978Z,33.23
2018-01-24T18:12:17.514Z,35.57
2018-01-24T18:14:45.024Z,35.03
2018-01-24T18:17:12.574Z,36.43
2018-01-24T18:19:40.102Z,34.43
2018-01-24T18:22:07.614Z,35.17
2018-01-24T18:24:35.935Z,33.77
2018-01-24T18:27:03.486Z,33.70
2018-01-24T18:29:31.016Z,32.33
2018-01-24T18:31:59.358Z,32.93
2018-01-24T18:34:26.924Z,33.50
2018-01-24T18:36:54.428Z,30.60
2018-01-24T18:39:21.973Z,32.17
2018-01-24T18:41:49.492Z,34.17
2018-01-24T18:44:17.017Z,35.23
2018-01-24T18:46:44.552Z,33.03
2018-01-24T18:49:12.112Z,33.33
2018-01-24T18:51:39.685Z,34.97
2018-01-24T18:54:07.243Z,34.17
2018-01-24T18:56:34.762Z,33.33
2018-01-24T18:59:02.357Z,33.33
2018-01-24T19:01:30.668Z,33.40
2018-01-24T19:03:58.230Z,34.90
2018-01-24T19:06:25.782Z,35.80
2018-01-24T19:08:53.353Z,34.53
2018-01-24T19:11:20.918Z,35.60
2018-01-24T19:13:48.472Z,35.70
2018-01-24T19:16:16.233Z,36.83
2018-01-24T19:18:43.750Z,37.40
2018-01-24T19:21:11.273Z,38.03
2018-01-24T19:23:38.828Z,38.60
2018-01-24T19:26:06.362Z,36.90
2018-01-24T19:28:33.886Z,36.20
2018-01-24T19:31:01.448Z,38.47
2018-01-24T19:33:28.989Z,38.77
2018-01-24T19:35:57.284Z,41.27
2018-01-24T19:38:24.848Z,37.60
2018-01-24T19:40:52.407Z,36.37
2018-01-24T19:43:19.974Z,38.00
2018-01-24T19:45:47.520Z,41.30
2018-01-24T19:48:15.061Z,39.60
2018-01-24T19:50:43.460Z,40.13
2018-01-24T19:53:11.037Z,39.47
2018-01-24T19:55:38.608Z,42.90
2018-01-24T19:58:06.164Z,39.33
2018-01-24T20:00:34.062Z,39.70
2018-01-24T20:03:02.426Z,41.77
2018-01-24T20:05:29.992Z,44.37
2018-01-24T20:07:57.572Z,44.33
2018-01-24T20:10:25.133Z,43.97
2018-01-24T20:12:52.698Z,43.13
2018-01-24T20:15:20.224Z,44.93
2018-01-24T20:17:47.764Z,42.87
2018-01-24T20:20:15.306Z,42.67
2018-01-24T20:22:42.880Z,44.73
2018-01-24T20:25:10.417Z,43.87
2018-01-24T20:27:37.950Z,43.70
2018-01-24T20:30:05.496Z,40.73
2018-01-24T20:32:33.006Z,43.17
2018-01-24T20:35:00.576Z,43.53
2018-01-24T20:37:28.104Z,44.70
2018-01-24T20:39:55.638Z,44.13
2018-01-24T20:42:23.166Z,40.83
2018-01-24T20:44:50.758Z,42.10
2018-01-24T20:47:19.058Z,42.37
2018-01-24T20:49:46.585Z,40.13
2018-01-24T20:52:14.144Z,44.37
2018-01-24T20:54:41.683Z,42.17
2018-01-24T20:57:09.228Z,42.30
2018-01-24T20:59:37.054Z,42.10
2018-01-24T21:02:04.571Z,41.17
2018-01-24T21:04:32.120Z,43.83
2018-01-24T21:06:59.644Z,44.03
2018-01-24T21:09:27.172Z,44.60
2018-01-24T21:11:54.683Z,43.90
2018-01-24T21:14:22.236Z,43.43
2018-01-24T21:16:49.758Z,42.10
2018-01-24T21:19:18.043Z,45.13
2018-01-24T21:21:46.336Z,48.80
2018-01-24T21:24:13.848Z,49.33
2018-01-24T21:26:41.344Z,46.03
2018-01-24T21:29:29.396Z,59.47
2018-01-24T21:32:08.660Z,50.70
2018-01-24T21:37:35.238Z,47.53
2018-01-24T21:40:03.281Z,47.20
2018-01-24T21:42:31.024Z,48.57
2018-01-24T21:44:58.819Z,46.97
2018-01-24T21:47:26.530Z,48.33
2018-01-24T21:49:54.068Z,44.97
2018-01-24T21:52:21.740Z,47.03
2018-01-24T21:54:49.265Z,44.73
2018-01-24T21:57:16.832Z,43.67
2018-01-24T21:59:44.307Z,45.90
2018-01-24T22:02:11.832Z,46.23
2018-01-24T22:04:39.353Z,43.50
2018-01-24T22:07:06.859Z,41.87
2018-01-24T22:09:34.393Z,43.43
2018-01-24T22:12:01.904Z,41.77
2018-01-24T22:14:29.409Z,42.23
2018-01-24T22:16:56.930Z,42.30
2018-01-24T22:19:25.205Z,43.17
2018-01-24T22:21:52.703Z,41.97
2018-01-24T22:24:20.223Z,40.87
2018-01-24T22:26:47.724Z,41.70
2018-01-24T22:29:15.235Z,36.87
2018-01-24T22:31:43.532Z,36.70
2018-01-24T22:34:11.823Z,41.23
2018-01-24T22:36:39.341Z,42.07
2018-01-24T22:39:06.891Z,39.73
2018-01-24T22:41:34.391Z,38.30
2018-01-24T22:44:01.895Z,36.57
2018-01-24T22:46:29.428Z,37.73
2018-01-24T22:48:56.937Z,38.83
2018-01-24T22:51:25.335Z,36.00
2018-01-24T22:53:52.868Z,36.97
2018-01-24T22:56:20.380Z,36.37
2018-01-24T22:58:47.889Z,34.63
2018-01-24T23:01:15.426Z,35.53
2018-01-24T23:03:42.941Z,38.30
2018-01-24T23:06:10.447Z,37.13
2018-01-24T23:08:37.959Z,35.17
2018-01-24T23:11:05.469Z,36.27
2018-01-24T23:13:32.988Z,39.97
2018-01-24T23:16:00.535Z,34.20
2018-01-24T23:18:28.048Z,35.10
2018-01-24T23:20:55.555Z,35.13
2018-01-24T23:23:23.074Z,33.27
2018-01-24T23:25:50.579Z,35.83
2018-01-24T23:28:18.083Z,37.07
2018-01-24T23:30:45.611Z,34.37
2018-01-24T23:33:13.128Z,34.57
2018-01-24T23:35:41.403Z,33.57
2018-01-24T23:38:08.944Z,33.87
2018-01-24T23:40:36.467Z,35.27
2018-01-24T23:43:04.010Z,35.83
2018-01-24T23:45:31.541Z,32.23
2018-01-24T23:47:59.827Z,33.30
2018-01-24T23:50:27.374Z,34.47
2018-01-24T23:52:54.893Z,34.00
2018-01-24T23:55:22.419Z,32.70
2018-01-24T23:57:50.027Z,32.10
